首页
METAR-TAF:

METAR-TAF

机场 :

瓜地馬拉, 危地马拉

拉奥罗拉国际机场

纬度: 14-35N, 经度: 090-31W, 海拔: 1489米

当前天气观测

该预报发布于15分钟前的13:00 UTC
风速18节,风向
温度 11°C
湿度 87%
气压 1030 hPa
能见度10公里或以上
散云层高于1400英尺
多云层高于10000英尺

METAR: MGGT 171300Z 36018KT 9999 SCT014 BKN100 11/09 Q1030 A3042

时间: 07:15 (13:15 UTC)

预报

该预报发布于2小时和15分钟前的11:00 UTC
预报有效从17日的 12点(UTC)到 18日的 12点(UTC)
风速16节,风向
能见度10公里或以上
散云层高于1600英尺
成为
从 17日的 15点(UTC)到 17日的 17点(UTC)
少量云层高于1800英尺
成为
从 18日的 01点(UTC)到 18日的 03点(UTC)
多云层高于1600英尺

TAF: MGGT 171100Z 1712/1812 36016KT 9999 SCT016 TX21/1720Z TN09/1712Z BECMG 1715/1717 FEW018 BECMG 1801/1803 BKN016

超过4000个机场的气象观测和天气预报(METAR&TAF报告)。

可查询的气象台以黄色和红色小点在地图上表示。

将鼠标移到小点上方,可查看气象台名称。

然后点击查看天气观测和预报。

如需切换地图:点击带黑十字的绿色按钮放大地图;点击带横线的绿色按钮缩小地图;或者点击绿色箭头查看邻近地区的地图。


METAR-TAF: